Mirny, Russia
Current Conditions -  °F | °C
As of 8:00 AM on Wednesday 22 Oct 2014 (Local Time) from URKK Reporting Station
Broken Clouds Broken Clouds  
Wind Chill: 59°   Ceiling: 10000
Heat Index: 59°   Visibility: 6mi
Dew Point: 50°   Wind: 11mph
Humidity: 72%   Direction: 230°SW
Pressure: 29.85"   Gusts: 18mph
Location:  45.55°N, 38.91°E
Report Text: URKK 220500Z 23005G08MPS 9999 FEW046 BKN100 15/10 Q1011 NOSIGRMK QFE755 SC070
Loading
Personal Weather Stations






























Interactive Weather Map
Tropical Storm Tracking
New forecast layout! Learn more

10-Day Weather Forecast

Advertisements
Track Severe Weather on mobile